Time;durP1;ratioP1;P1;durP2;ratioP2;P2;SDS_P1;SDS_P2;PMS_P1;PMS_P2;Temp;Humidity;BMP_temperature;BMP_pressure;BME280_temperature;BME280_humidity;BME280_pressure;Samples;Min_cycle;Max_cycle;Signal;HPM_P1;HPM_P2
2023/12/18 00:02:07;;;;;;;52.35;31.27;;;;;;;-1.40;100.00;98031.75;5092350;28;20024;-65
2023/12/18 00:04:33;;;;;;;47.75;28.58;;;;;;;-1.36;100.00;98031.69;5096246;28;20476;-65
2023/12/18 00:06:58;;;;;;;51.60;31.15;;;;;;;-1.38;100.00;98035.19;5088540;28;20063;-65
2023/12/18 00:09:23;;;;;;;58.45;36.03;;;;;;;-1.38;100.00;98033.44;5090160;28;20144;-65
2023/12/18 00:11:49;;;;;;;56.10;36.42;;;;;;;-1.37;100.00;98031.72;5093673;28;20457;-65
2023/12/18 00:14:15;;;;;;;55.38;35.35;;;;;;;-1.36;100.00;98025.69;5092004;28;20407;-65
2023/12/18 00:16:40;;;;;;;51.50;32.08;;;;;;;-1.36;100.00;98023.94;5092699;28;20035;-65
2023/12/18 00:19:05;;;;;;;53.97;33.92;;;;;;;-1.38;100.00;98022.25;5091110;28;20055;-65
2023/12/18 00:21:31;;;;;;;50.30;32.20;;;;;;;-1.42;100.00;98023.16;5092415;28;20025;-65
2023/12/18 00:23:56;;;;;;;42.38;30.55;;;;;;;-1.38;100.00;98014.50;5088390;28;20031;-65
2023/12/18 00:26:23;;;;;;;42.40;28.70;;;;;;;-1.40;100.00;98011.91;5083731;28;20028;-65
2023/12/18 00:28:48;;;;;;;44.25;28.70;;;;;;;-1.46;100.00;98015.41;5090580;28;20074;-65
2023/12/18 00:31:14;;;;;;;42.72;27.95;;;;;;;-1.51;100.00;98008.56;5091970;28;20028;-65
2023/12/18 00:33:39;;;;;;;33.83;24.55;;;;;;;-1.52;100.00;98012.03;5094925;28;20032;-65
2023/12/18 00:36:05;;;;;;;36.63;25.75;;;;;;;-1.48;100.00;98009.38;5086740;28;20040;-65
2023/12/18 00:38:30;;;;;;;34.17;23.30;;;;;;;-1.45;100.00;98006.78;5091573;28;20041;-64
2023/12/18 00:40:56;;;;;;;29.02;22.20;;;;;;;-1.47;100.00;97999.91;5094847;28;20042;-64
2023/12/18 00:43:21;;;;;;;31.45;22.10;;;;;;;-1.48;100.00;97999.06;5093027;28;20541;-65
2023/12/18 00:45:47;;;;;;;29.25;21.70;;;;;;;-1.47;100.00;98003.34;5090061;28;20475;-65
2023/12/18 00:48:12;;;;;;;33.55;23.48;;;;;;;-1.48;100.00;97999.06;5093122;28;20023;-65
2023/12/18 00:50:38;;;;;;;39.33;24.08;;;;;;;-1.52;100.00;98001.69;5093337;28;20129;-64
2023/12/18 00:53:03;;;;;;;34.10;23.20;;;;;;;-1.46;100.00;97996.47;5086068;28;20027;-64
2023/12/18 00:55:28;;;;;;;26.17;18.83;;;;;;;-1.42;100.00;97994.72;5084801;28;20107;-65
2023/12/18 00:57:55;;;;;;;25.65;19.13;;;;;;;-1.43;100.00;97987.84;5089561;28;20498;-65
2023/12/18 01:00:20;;;;;;;25.23;19.38;;;;;;;-1.43;100.00;97987.84;5092484;28;20024;-65
2023/12/18 01:02:46;;;;;;;28.35;20.08;;;;;;;-1.48;100.00;97990.47;5087655;28;20477;-65
2023/12/18 01:05:13;;;;;;;25.25;19.42;;;;;;;-1.49;100.00;97986.16;5092532;28;20166;-64
2023/12/18 01:07:40;;;;;;;30.88;19.08;;;;;;;-1.49;100.00;97992.16;5087233;28;20052;-64
2023/12/18 01:10:07;;;;;;;24.55;18.10;;;;;;;-1.51;100.00;97986.16;5084550;28;20024;-65
2023/12/18 01:12:32;;;;;;;21.27;16.85;;;;;;;-1.54;100.00;97996.50;5079801;28;20017;-64
2023/12/18 01:14:57;;;;;;;23.13;17.20;;;;;;;-1.52;100.00;97989.59;5082818;28;20020;-64
2023/12/18 01:17:23;;;;;;;27.95;18.63;;;;;;;-1.52;100.00;97989.59;5083293;28;20407;-65
2023/12/18 01:19:48;;;;;;;23.38;16.90;;;;;;;-1.51;100.00;97983.56;5085482;28;20040;-65
2023/12/18 01:22:13;;;;;;;22.35;16.42;;;;;;;-1.53;100.00;97993.06;5086047;28;20027;-64
2023/12/18 01:24:39;;;;;;;23.67;16.88;;;;;;;-1.56;100.00;97982.75;5094129;28;20043;-65
2023/12/18 01:27:04;;;;;;;17.27;13.90;;;;;;;-1.54;100.00;97987.94;5085167;28;20026;-65
2023/12/18 01:29:30;;;;;;;19.52;14.45;;;;;;;-1.58;100.00;97990.50;5092964;28;20020;-65
2023/12/18 01:31:55;;;;;;;19.63;13.73;;;;;;;-1.56;100.00;97981.88;5083614;28;20016;-65
2023/12/18 01:34:21;;;;;;;17.55;13.38;;;;;;;-1.58;100.00;97987.06;5083032;28;20031;-65
2023/12/18 01:36:46;;;;;;;17.10;13.57;;;;;;;-1.58;100.00;97977.59;5089830;28;20396;-65
2023/12/18 01:39:13;;;;;;;17.35;14.07;;;;;;;-1.51;100.00;97975.81;5081407;28;20036;-65
2023/12/18 01:41:39;;;;;;;17.00;12.90;;;;;;;-1.53;100.00;97984.47;5091624;28;20028;-65
2023/12/18 01:44:04;;;;;;;16.15;12.48;;;;;;;-1.60;100.00;97987.06;5093534;28;20083;-65
2023/12/18 01:46:35;;;;;;;13.00;9.98;;;;;;;-1.62;100.00;97980.22;5087244;28;20046;-65
2023/12/18 01:49:01;;;;;;;8.40;7.60;;;;;;;-1.59;100.00;97973.28;5083332;28;20028;-65
2023/12/18 01:51:29;;;;;;;7.88;7.10;;;;;;;-1.56;100.00;97964.66;5090310;28;20013;-65
2023/12/18 01:53:56;;;;;;;13.07;7.00;;;;;;;-1.52;100.00;97970.69;5086343;28;20089;-65
2023/12/18 01:56:25;;;;;;;10.00;8.60;;;;;;;-1.49;100.00;97975.81;5084104;28;20012;-65
2023/12/18 01:58:54;;;;;;;11.27;8.00;;;;;;;-1.49;100.00;97960.31;5087001;28;20081;-65
2023/12/18 02:01:19;;;;;;;11.55;9.15;;;;;;;-1.50;100.00;97964.63;5083371;28;20055;-65
2023/12/18 02:03:46;;;;;;;9.05;7.05;;;;;;;-1.51;100.00;97962.06;5087175;28;20024;-64
2023/12/18 02:06:13;;;;;;;8.80;7.75;;;;;;;-1.52;100.00;97962.94;5086786;28;20030;-64
2023/12/18 02:08:39;;;;;;;9.13;7.22;;;;;;;-1.52;100.00;97961.19;5076568;28;20039;-64
2023/12/18 02:11:04;;;;;;;8.85;7.95;;;;;;;-1.54;100.00;97959.50;5091055;28;20024;-65
2023/12/18 02:13:30;;;;;;;8.25;7.03;;;;;;;-1.53;100.00;97949.13;5088800;28;20028;-64
2023/12/18 02:15:57;;;;;;;8.60;7.80;;;;;;;-1.54;100.00;97952.59;5091376;28;20138;-65
2023/12/18 02:18:23;;;;;;;7.32;6.43;;;;;;;-1.59;100.00;97949.19;5089407;28;20093;-64
2023/12/18 02:20:48;;;;;;;8.25;7.32;;;;;;;-1.60;100.00;97947.47;5092125;28;20023;-65
2023/12/18 02:23:13;;;;;;;7.63;6.82;;;;;;;-1.65;100.00;97944.09;5086395;28;20172;-65
2023/12/18 02:25:39;;;;;;;8.07;6.88;;;;;;;-1.66;100.00;97943.22;5081187;28;20108;-65
2023/12/18 02:28:08;;;;;;;8.68;6.95;;;;;;;-1.66;100.00;97938.03;5088137;28;20021;-64
2023/12/18 02:30:34;;;;;;;9.00;7.65;;;;;;;-1.64;100.00;97935.47;5086358;28;20043;-64
2023/12/18 02:33:00;;;;;;;10.02;7.88;;;;;;;-1.63;100.00;97944.94;5085050;28;20020;-65
2023/12/18 02:35:26;;;;;;;12.38;9.20;;;;;;;-1.64;100.00;97935.47;5088681;28;20028;-64
2023/12/18 02:37:51;;;;;;;9.20;8.20;;;;;;;-1.64;100.00;97940.63;5090960;28;20020;-64
2023/12/18 02:40:16;;;;;;;15.55;9.63;;;;;;;-1.70;100.00;97938.06;5087111;28;20024;-65
2023/12/18 02:42:42;;;;;;;13.27;8.65;;;;;;;-1.73;100.00;97944.13;5085923;28;20034;-64
2023/12/18 02:45:08;;;;;;;13.98;10.05;;;;;;;-1.71;100.00;97938.94;5087409;28;20283;-64
2023/12/18 02:47:33;;;;;;;14.38;10.73;;;;;;;-1.73;100.00;97937.22;5087336;28;20113;-64
2023/12/18 02:49:58;;;;;;;14.98;9.75;;;;;;;-1.76;100.00;97933.81;5088493;28;20021;-65
2023/12/18 02:52:24;;;;;;;17.63;10.63;;;;;;;-1.79;100.00;97932.09;5087457;28;20021;-64
2023/12/18 02:54:49;;;;;;;15.00;10.68;;;;;;;-1.78;100.00;97941.56;5085240;28;20051;-64
2023/12/18 02:57:15;;;;;;;18.83;11.25;;;;;;;-1.77;100.00;97920.03;5081783;28;20116;-64
2023/12/18 02:59:40;;;;;;;15.52;10.65;;;;;;;-1.79;100.00;97929.53;5091293;28;20039;-65
2023/12/18 03:02:05;;;;;;;15.32;10.77;;;;;;;-1.80;100.00;97926.94;5085749;28;20099;-64
2023/12/18 03:04:31;;;;;;;17.10;10.90;;;;;;;-1.81;100.00;97917.47;5086524;28;20024;-64
2023/12/18 03:06:56;;;;;;;17.02;10.30;;;;;;;-1.79;100.00;97923.50;5080998;28;20063;-65
2023/12/18 03:09:21;;;;;;;15.32;9.55;;;;;;;-1.80;100.00;97919.19;5090828;28;20052;-64
2023/12/18 03:11:47;;;;;;;14.90;9.50;;;;;;;-1.83;100.00;97930.41;5079402;28;20094;-65
2023/12/18 03:14:12;;;;;;;13.43;9.27;;;;;;;-1.86;100.00;97914.94;5090438;28;20052;-64
2023/12/18 03:16:38;;;;;;;11.45;8.90;;;;;;;-1.87;100.00;97926.16;5085522;28;20016;-65
2023/12/18 03:19:03;;;;;;;14.05;9.32;;;;;;;-1.88;100.00;97919.25;5091920;28;20044;-64
2023/12/18 03:21:29;;;;;;;11.57;8.18;;;;;;;-1.87;100.00;97908.06;5090732;28;20033;-65
2023/12/18 03:23:55;;;;;;;12.27;8.93;;;;;;;-1.88;100.00;97911.50;5088983;28;20028;-65
2023/12/18 03:26:20;;;;;;;10.02;8.00;;;;;;;-1.87;100.00;97908.06;5086309;28;20036;-64
2023/12/18 03:28:46;;;;;;;7.32;6.65;;;;;;;-1.86;100.00;97917.53;5080344;28;20028;-65
2023/12/18 03:31:11;;;;;;;7.57;6.82;;;;;;;-1.83;100.00;97920.09;5086648;28;20032;-64
2023/12/18 03:33:37;;;;;;;9.20;8.27;;;;;;;-1.80;100.00;97922.66;5079236;28;20857;-65
2023/12/18 03:36:06;;;;;;;10.10;8.15;;;;;;;-1.75;100.00;97925.22;5089018;28;20027;-64
2023/12/18 03:38:32;;;;;;;10.82;7.80;;;;;;;-1.79;100.00;97921.78;5089280;28;20116;-64
2023/12/18 03:40:57;;;;;;;11.05;7.72;;;;;;;-1.76;100.00;97911.41;5081121;28;20079;-64
2023/12/18 03:43:26;;;;;;;9.18;7.50;;;;;;;-1.75;100.00;97918.31;5085018;28;20036;-64
2023/12/18 03:45:52;;;;;;;10.38;6.55;;;;;;;-1.77;100.00;97912.28;5088090;28;20025;-65
2023/12/18 03:48:21;;;;;;;7.55;6.22;;;;;;;-1.76;100.00;97915.75;5080453;28;20025;-64
2023/12/18 03:50:46;;;;;;;8.15;6.15;;;;;;;-1.79;100.00;97911.44;5089644;28;20016;-65
2023/12/18 03:53:12;;;;;;;6.55;5.80;;;;;;;-1.80;100.00;97920.06;5081353;28;20024;-64
2023/12/18 03:55:38;;;;;;;10.13;6.53;;;;;;;-1.83;100.00;97921.81;5086635;28;20131;-64
2023/12/18 03:58:04;;;;;;;13.48;10.35;;;;;;;-1.83;100.00;97919.22;5086909;28;20031;-65
2023/12/18 04:00:30;;;;;;;11.10;9.07;;;;;;;-1.85;100.00;97927.00;5091852;28;20032;-64
2023/12/18 04:02:55;;;;;;;10.52;6.80;;;;;;;-1.86;100.00;97930.44;5092991;28;20023;-64
2023/12/18 04:05:22;;;;;;;10.13;7.25;;;;;;;-1.83;100.00;97933.00;5092663;28;20481;-65
2023/12/18 04:07:47;;;;;;;28.08;19.33;;;;;;;-1.80;100.00;97924.34;5095366;28;20031;-64
2023/12/18 04:10:13;;;;;;;24.33;16.50;;;;;;;-1.81;100.00;97925.22;5093823;28;20036;-64
2023/12/18 04:12:38;;;;;;;28.45;18.27;;;;;;;-1.80;100.00;97922.66;5092876;28;20409;-65
2023/12/18 04:15:06;;;;;;;23.92;16.23;;;;;;;-1.77;100.00;97903.66;5087384;28;20050;-65
2023/12/18 04:17:31;;;;;;;28.40;19.00;;;;;;;-1.75;100.00;97918.31;5091352;28;20474;-65
2023/12/18 04:19:57;;;;;;;25.02;17.88;;;;;;;-1.78;100.00;97912.28;5089954;28;20054;-64
2023/12/18 04:22:22;;;;;;;25.70;16.05;;;;;;;-1.84;100.00;97909.75;5085021;28;20128;-65
2023/12/18 04:24:47;;;;;;;22.42;15.88;;;;;;;-1.88;100.00;97903.75;5087985;28;20036;-64
2023/12/18 04:27:13;;;;;;;22.88;14.95;;;;;;;-1.89;100.00;97902.03;5092079;28;20036;-64
2023/12/18 04:29:38;;;;;;;24.45;15.93;;;;;;;-1.94;100.00;97902.09;5085025;28;20024;-65
2023/12/18 04:32:05;;;;;;;20.77;14.70;;;;;;;-1.98;100.00;97905.56;5094540;28;20488;-64
2023/12/18 04:34:30;;;;;;;21.23;14.02;;;;;;;-1.99;100.00;97893.53;5088363;28;20024;-64
2023/12/18 04:36:56;;;;;;;15.95;12.38;;;;;;;-1.98;100.00;97894.38;5095142;28;20057;-64
2023/12/18 04:39:21;;;;;;;15.55;11.32;;;;;;;-1.99;100.00;97895.25;5084709;28;20547;-64
2023/12/18 04:41:46;;;;;;;13.57;10.65;;;;;;;-1.92;100.00;97902.06;5086846;28;20142;-64
2023/12/18 04:44:12;;;;;;;12.88;10.50;;;;;;;-1.89;100.00;97892.59;5090882;28;20055;-64
2023/12/18 04:46:37;;;;;;;11.07;8.73;;;;;;;-1.92;100.00;97899.47;5090573;28;20015;-65
2023/12/18 04:49:04;;;;;;;10.13;9.07;;;;;;;-1.91;100.00;97901.19;5091823;28;20172;-65
2023/12/18 04:51:30;;;;;;;12.75;8.95;;;;;;;-1.93;100.00;97902.94;5089195;28;20055;-64
2023/12/18 04:53:56;;;;;;;14.60;9.23;;;;;;;-1.96;100.00;97905.53;5091387;28;20115;-64
2023/12/18 04:56:22;;;;;;;13.50;8.80;;;;;;;-1.96;100.00;97900.38;5085393;28;20043;-64
2023/12/18 04:58:47;;;;;;;9.40;8.45;;;;;;;-1.92;100.00;97891.72;5087650;28;20033;-65
2023/12/18 05:01:12;;;;;;;8.48;7.55;;;;;;;-1.93;100.00;97902.94;5089692;28;20032;-65
2023/12/18 05:03:38;;;;;;;10.55;8.93;;;;;;;-1.96;100.00;97902.97;5091225;28;20031;-65
2023/12/18 05:06:03;;;;;;;10.30;8.73;;;;;;;-1.97;100.00;97890.91;5092781;28;20031;-65
2023/12/18 05:08:29;;;;;;;11.73;8.93;;;;;;;-2.01;100.00;97902.97;5085989;28;20043;-64
2023/12/18 05:10:55;;;;;;;10.57;8.18;;;;;;;-2.05;100.00;97901.28;5092955;28;20032;-64
2023/12/18 05:13:20;;;;;;;11.68;9.88;;;;;;;-2.05;100.00;97904.75;5087588;28;20062;-65
2023/12/18 05:15:46;;;;;;;11.60;10.02;;;;;;;-2.03;100.00;97904.72;5086938;28;20035;-64
2023/12/18 05:18:11;;;;;;;13.20;8.90;;;;;;;-2.10;100.00;97911.66;5088519;28;20027;-65
2023/12/18 05:20:37;;;;;;;10.93;9.32;;;;;;;-2.11;100.00;97916.81;5091094;28;20525;-64
2023/12/18 05:23:02;;;;;;;11.40;8.85;;;;;;;-2.12;100.00;97908.22;5088471;28;20658;-64
2023/12/18 05:25:28;;;;;;;12.25;8.75;;;;;;;-2.14;100.00;97912.53;5090635;28;20039;-65
2023/12/18 05:27:53;;;;;;;11.05;9.85;;;;;;;-2.16;100.00;97916.84;5090045;28;20027;-65
2023/12/18 05:30:19;;;;;;;11.57;9.23;;;;;;;-2.16;100.00;97914.25;5085866;28;20093;-64
2023/12/18 05:32:44;;;;;;;18.38;12.02;;;;;;;-2.18;100.00;97916.88;5090841;28;20023;-65
2023/12/18 05:35:09;;;;;;;13.05;10.40;;;;;;;-2.16;100.00;97906.53;5083411;28;20082;-65
2023/12/18 05:37:35;;;;;;;11.05;8.50;;;;;;;-2.14;100.00;97909.94;5094227;28;20190;-64
2023/12/18 05:40:00;;;;;;;9.07;7.85;;;;;;;-2.16;100.00;97911.69;5090319;28;20035;-65
2023/12/18 05:42:25;;;;;;;13.57;8.98;;;;;;;-2.17;100.00;97916.00;5100293;28;20039;-65
2023/12/18 05:44:51;;;;;;;11.93;8.82;;;;;;;-2.09;100.00;97903.06;5080424;28;20047;-64
2023/12/18 05:47:16;;;;;;;9.70;8.00;;;;;;;-2.08;100.00;97906.47;5088506;28;20027;-65
2023/12/18 05:49:42;;;;;;;9.88;8.40;;;;;;;-2.09;100.00;97899.59;5095181;28;20024;-64
2023/12/18 05:52:07;;;;;;;10.13;8.57;;;;;;;-2.07;100.00;97896.16;5095793;28;20095;-64
2023/12/18 05:54:32;;;;;;;7.88;7.07;;;;;;;-2.05;100.00;97899.56;5092144;28;20103;-64
2023/12/18 05:56:58;;;;;;;12.55;7.40;;;;;;;-2.07;100.00;97896.16;5085279;28;20038;-64
2023/12/18 05:59:23;;;;;;;8.23;7.07;;;;;;;-2.05;100.00;97897.00;5085734;28;20034;-64
2023/12/18 06:01:48;;;;;;;8.65;7.57;;;;;;;-2.05;100.00;97889.25;5094727;28;20080;-64
2023/12/18 06:04:14;;;;;;;9.75;8.10;;;;;;;-2.08;100.00;97889.28;5087883;28;20134;-64
2023/12/18 06:06:39;;;;;;;7.40;6.70;;;;;;;-2.03;100.00;97895.25;5084645;28;20016;-65
2023/12/18 06:09:04;;;;;;;7.43;6.63;;;;;;;-1.97;100.00;97891.78;5089230;28;20464;-65
2023/12/18 06:11:30;;;;;;;7.75;6.38;;;;;;;-2.03;100.00;97890.09;5093660;28;20521;-64
2023/12/18 06:13:57;;;;;;;6.22;5.70;;;;;;;-2.07;100.00;97888.41;5091227;28;20059;-64
2023/12/18 06:16:22;;;;;;;6.93;6.32;;;;;;;-2.06;100.00;97878.94;5086365;28;20028;-65
2023/12/18 06:18:48;;;;;;;8.52;7.72;;;;;;;-2.02;100.00;97881.47;5087493;28;20509;-64
2023/12/18 06:21:13;;;;;;;10.43;8.40;;;;;;;-1.98;100.00;97878.88;5094143;28;20032;-65
2023/12/18 06:23:39;;;;;;;10.13;8.75;;;;;;;-1.98;100.00;97874.59;5087289;28;20024;-64
2023/12/18 06:26:05;;;;;;;8.80;7.85;;;;;;;-2.00;100.00;97881.44;5089631;28;20048;-64
2023/12/18 06:28:31;;;;;;;9.38;8.02;;;;;;;-2.02;100.00;97878.03;5086766;28;20138;-64
2023/12/18 06:30:56;;;;;;;10.10;9.20;;;;;;;-2.04;100.00;97869.44;5074113;28;20095;-65
2023/12/18 06:33:21;;;;;;;11.98;10.10;;;;;;;-2.08;100.00;97875.50;5087418;28;20098;-65
2023/12/18 06:35:47;;;;;;;9.70;8.70;;;;;;;-2.05;100.00;97878.94;5087899;28;20032;-65
2023/12/18 06:38:12;;;;;;;13.65;8.85;;;;;;;-2.08;100.00;97873.78;5086325;28;20028;-64
2023/12/18 06:40:38;;;;;;;12.77;10.57;;;;;;;-2.06;100.00;97871.19;5078747;28;20080;-64
2023/12/18 06:43:03;;;;;;;10.68;9.57;;;;;;;-2.07;100.00;97872.91;5085879;28;20032;-65
2023/12/18 06:45:29;;;;;;;13.52;10.57;;;;;;;-2.07;100.00;97875.50;5091362;28;20052;-65
2023/12/18 06:47:54;;;;;;;10.32;9.32;;;;;;;-2.16;100.00;97884.16;5079979;28;20025;-66
2023/12/18 06:50:19;;;;;;;10.13;8.77;;;;;;;-2.13;100.00;97885.84;5093945;28;20088;-66
2023/12/18 06:52:45;;;;;;;7.85;6.88;;;;;;;-2.10;100.00;97880.69;5090234;28;20024;-66
2023/12/18 06:55:10;;;;;;;8.13;7.30;;;;;;;-2.07;100.00;97885.81;5092726;28;20117;-68
2023/12/18 06:57:35;;;;;;;9.77;8.48;;;;;;;-2.09;100.00;97878.94;5078854;28;20035;-68
2023/12/18 07:00:01;;;;;;;9.43;8.63;;;;;;;-2.08;100.00;97881.53;5085944;28;20029;-65
2023/12/18 07:02:26;;;;;;;10.23;9.18;;;;;;;-2.11;100.00;97886.69;5092781;28;20523;-67
2023/12/18 07:04:52;;;;;;;11.90;9.25;;;;;;;-2.07;100.00;97887.53;5088437;28;20020;-66
2023/12/18 07:07:18;;;;;;;10.07;9.18;;;;;;;-2.05;100.00;97885.81;5091941;28;20023;-66
2023/12/18 07:09:45;;;;;;;12.15;9.80;;;;;;;-2.00;100.00;97883.19;5091664;28;20093;-67
2023/12/18 07:12:10;;;;;;;9.98;8.98;;;;;;;-1.99;100.00;97879.75;5083947;28;20032;-66
2023/12/18 07:14:38;;;;;;;9.88;8.18;;;;;;;-1.97;100.00;97880.59;5091632;28;20095;-67
2023/12/18 07:17:04;;;;;;;12.02;9.82;;;;;;;-2.01;100.00;97882.31;5079558;28;20035;-66
2023/12/18 07:19:29;;;;;;;10.75;9.50;;;;;;;-1.98;100.00;97884.03;5090731;28;20044;-67
2023/12/18 07:21:54;;;;;;;13.82;10.52;;;;;;;-1.99;100.00;97880.63;5089069;28;20031;-65
2023/12/18 07:24:20;;;;;;;12.10;9.35;;;;;;;-1.97;100.00;97886.63;5080361;28;20063;-66
2023/12/18 07:26:45;;;;;;;11.88;10.00;;;;;;;-1.95;100.00;97884.00;5081239;28;20026;-66
2023/12/18 07:29:11;;;;;;;20.58;14.68;;;;;;;-1.93;100.00;97887.44;5091828;28;20028;-66
2023/12/18 07:31:36;;;;;;;20.70;16.40;;;;;;;-1.82;100.00;97884.78;5093775;28;20019;-67
2023/12/18 07:34:02;;;;;;;21.45;19.08;;;;;;;-1.75;100.00;97882.13;5085729;28;20035;-67
2023/12/18 07:36:27;;;;;;;16.88;15.13;;;;;;;-1.77;100.00;97888.19;5091900;28;20512;-66
2023/12/18 07:38:52;;;;;;;15.43;13.77;;;;;;;-1.76;100.00;97885.59;5094813;28;20099;-66
2023/12/18 07:41:18;;;;;;;16.58;14.60;;;;;;;-1.72;100.00;97883.84;5097942;28;20042;-65
2023/12/18 07:43:44;;;;;;;17.13;15.32;;;;;;;-1.70;100.00;97896.75;5092538;28;20032;-66
2023/12/18 07:46:19;;;;;;;17.80;15.90;;;;;;;-1.69;100.00;97885.53;5096972;28;20035;-66
2023/12/18 07:48:48;;;;;;;18.60;15.65;;;;;;;-1.65;100.00;97882.09;5094468;28;20028;-66
2023/12/18 07:51:14;;;;;;;25.95;17.77;;;;;;;-1.63;100.00;97883.75;5094957;28;20038;-66
2023/12/18 07:53:40;;;;;;;21.23;16.33;;;;;;;-1.64;100.00;97894.97;5094697;28;20062;-66
2023/12/18 07:56:05;;;;;;;20.45;16.58;;;;;;;-1.63;100.00;97885.50;5097876;28;20024;-66
2023/12/18 07:58:31;;;;;;;20.27;16.95;;;;;;;-1.62;100.00;97887.22;5092749;28;20092;-66
2023/12/18 08:00:56;;;;;;;19.40;17.20;;;;;;;-1.65;100.00;97895.00;5072622;28;20035;-66
2023/12/18 08:03:22;;;;;;;19.65;16.77;;;;;;;-1.67;100.00;97889.84;5090361;28;20052;-65
2023/12/18 08:05:47;;;;;;;17.27;15.45;;;;;;;-1.74;100.00;97883.84;5088362;28;20036;-66
2023/12/18 08:08:13;;;;;;;17.30;15.43;;;;;;;-1.73;100.00;97889.88;5080856;28;20048;-66
2023/12/18 08:10:38;;;;;;;18.80;15.90;;;;;;;-1.71;100.00;97887.28;5095634;28;20040;-66
2023/12/18 08:13:03;;;;;;;17.33;13.15;;;;;;;-1.68;100.00;97888.13;5091319;28;20024;-66
2023/12/18 08:15:29;;;;;;;19.10;14.23;;;;;;;-1.68;100.00;97882.09;5096445;28;20117;-66
2023/12/18 08:17:54;;;;;;;17.02;13.73;;;;;;;-1.67;100.00;97884.66;5090891;28;20036;-66
2023/12/18 08:20:20;;;;;;;18.75;13.20;;;;;;;-1.61;100.00;97870.84;5087784;28;20094;-66
2023/12/18 08:22:45;;;;;;;86.25;40.90;;;;;;;-1.51;100.00;97871.63;5090655;28;20034;-66
2023/12/18 08:25:10;;;;;;;58.65;31.33;;;;;;;-1.47;100.00;97874.16;5078166;28;20052;-66
2023/12/18 08:27:36;;;;;;;58.28;30.73;;;;;;;-1.46;100.00;97873.28;5078377;28;20056;-66
2023/12/18 08:30:06;;;;;;;45.65;24.15;;;;;;;-1.43;100.00;97872.41;5087700;28;20025;-66
2023/12/18 08:32:32;;;;;;;38.10;23.25;;;;;;;-1.40;100.00;97872.38;5096088;28;20115;-65
2023/12/18 08:35:00;;;;;;;41.90;25.20;;;;;;;-1.40;100.00;97864.63;5082392;28;20047;-66
2023/12/18 08:37:28;;;;;;;50.72;26.65;;;;;;;-1.40;100.00;97867.19;5093534;28;20059;-66
2023/12/18 08:39:54;;;;;;;46.20;26.77;;;;;;;-1.35;100.00;97867.16;5088157;28;20024;-66
2023/12/18 08:42:20;;;;;;;41.65;24.27;;;;;;;-1.35;100.00;97865.41;5095011;28;20035;-66
2023/12/18 08:44:45;;;;;;;40.65;24.40;;;;;;;-1.37;100.00;97861.16;5089198;28;20023;-66
2023/12/18 08:47:11;;;;;;;35.05;24.98;;;;;;;-1.38;100.00;97862.88;5088931;28;20036;-65
2023/12/18 08:49:36;;;;;;;39.13;25.77;;;;;;;-1.40;100.00;97858.59;5082808;28;20066;-66
2023/12/18 08:52:02;;;;;;;42.92;23.80;;;;;;;-1.45;100.00;97863.81;5093541;28;20027;-66
2023/12/18 08:54:27;;;;;;;41.97;26.30;;;;;;;-1.45;100.00;97856.91;5094289;28;20027;-65
2023/12/18 08:56:53;;;;;;;43.15;26.13;;;;;;;-1.42;100.00;97863.78;5087427;28;20032;-66
2023/12/18 08:59:18;;;;;;;41.15;27.23;;;;;;;-1.35;100.00;97869.75;5082301;28;20036;-66
2023/12/18 09:01:43;;;;;;;42.03;30.05;;;;;;;-1.30;100.00;97865.38;5092165;28;20111;-66
2023/12/18 09:04:09;;;;;;;43.55;31.73;;;;;;;-1.26;100.00;97873.97;5084802;28;20378;-66
2023/12/18 09:06:35;;;;;;;44.30;29.98;;;;;;;-1.30;100.00;97868.84;5093062;28;20032;-66
2023/12/18 09:09:01;;;;;;;44.45;30.13;;;;;;;-1.30;100.00;97876.59;5078503;28;20028;-66
2023/12/18 09:11:29;;;;;;;36.72;27.25;;;;;;;-1.33;100.00;97875.75;5087183;28;20484;-66
2023/12/18 09:13:55;;;;;;;43.47;30.33;;;;;;;-1.32;100.00;97875.75;5074124;28;20039;-66
2023/12/18 09:16:21;;;;;;;48.45;32.92;;;;;;;-1.31;100.00;97871.44;5095996;28;20035;-66
2023/12/18 09:18:46;;;;;;;50.50;40.40;;;;;;;-1.25;100.00;97871.34;5090385;28;20045;-66
2023/12/18 09:21:12;;;;;;;48.47;36.72;;;;;;;-1.24;100.00;97870.47;5085707;28;20448;-65
2023/12/18 09:23:37;;;;;;;40.25;33.08;;;;;;;-1.22;100.00;97863.56;5082575;28;20023;-66
2023/12/18 09:26:02;;;;;;;36.88;30.88;;;;;;;-1.19;100.00;97860.09;5094977;28;20089;-66
2023/12/18 09:28:28;;;;;;;40.13;29.67;;;;;;;-1.15;100.00;97861.78;5089511;28;20033;-66
2023/12/18 09:30:53;;;;;;;37.58;32.22;;;;;;;-1.14;100.00;97857.47;5089473;28;20032;-65
2023/12/18 09:33:19;;;;;;;39.10;30.83;;;;;;;-1.12;100.00;97858.31;5076496;28;20024;-65
2023/12/18 09:35:44;;;;;;;39.88;29.30;;;;;;;-1.00;100.00;97845.25;5090319;28;20032;-65
2023/12/18 09:38:09;;;;;;;33.72;28.77;;;;;;;-0.72;100.00;97850.94;5093537;28;20051;-66
2023/12/18 09:40:35;;;;;;;38.55;31.20;;;;;;;-0.28;100.00;97844.34;5095678;28;20410;-65
2023/12/18 09:43:02;;;;;;;32.28;28.35;;;;;;;0.17;100.00;97847.13;5078197;28;20077;-65
2023/12/18 09:45:30;;;;;;;33.40;28.48;;;;;;;0.59;100.00;97838.63;5079310;28;20055;-65
2023/12/18 09:47:55;;;;;;;31.70;27.35;;;;;;;1.05;100.00;97836.94;5083932;28;20027;-65
2023/12/18 09:50:21;;;;;;;26.73;21.27;;;;;;;1.54;100.00;97844.59;5095498;28;20400;-65
2023/12/18 09:52:58;;;;;;;24.10;20.58;;;;;;;2.03;100.00;97846.97;5095181;28;20103;-65
2023/12/18 09:55:24;;;;;;;22.80;18.70;;;;;;;2.34;100.00;97852.28;5094807;28;20031;-66
2023/12/18 09:57:51;;;;;;;21.42;19.02;;;;;;;2.60;100.00;97857.72;5090433;28;20028;-65
2023/12/18 10:00:17;;;;;;;26.40;21.00;;;;;;;2.88;100.00;97865.66;5093228;28;20032;-65
2023/12/18 10:02:42;;;;;;;25.77;21.38;;;;;;;3.23;100.00;97852.59;5094202;28;20073;-65
2023/12/18 10:05:08;;;;;;;18.73;16.73;;;;;;;3.56;100.00;97862.91;5093875;28;20032;-66
2023/12/18 10:07:34;;;;;;;19.83;17.17;;;;;;;3.87;100.00;97862.84;5087553;28;20035;-67
2023/12/18 10:09:59;;;;;;;13.45;12.05;;;;;;;4.10;100.00;97856.06;5083956;28;20164;-66
2023/12/18 10:12:25;;;;;;;15.23;13.20;;;;;;;4.34;100.00;97868.38;5079026;28;20463;-67
2023/12/18 10:14:50;;;;;;;13.27;11.85;;;;;;;4.52;100.00;97872.97;5091890;28;20054;-66
2023/12/18 10:17:16;;;;;;;21.05;17.88;;;;;;;4.70;100.00;97874.16;5091959;28;20023;-66
2023/12/18 10:19:43;;;;;;;16.88;15.07;;;;;;;4.73;100.00;97881.88;5094776;28;20125;-66
2023/12/18 10:22:09;;;;;;;6.95;6.32;;;;;;;4.61;100.00;97873.59;5088966;28;20515;-66
2023/12/18 10:24:41;;;;;;;9.15;8.25;;;;;;;4.48;100.00;97879.19;5088357;28;20404;-66
2023/12/18 10:27:06;;;;;;;13.80;9.82;;;;;;;4.42;100.00;97874.19;5084865;28;20031;-66
2023/12/18 10:29:32;;;;;;;16.15;14.52;;;;;;;4.50;100.00;97872.19;5092795;28;20028;-66
2023/12/18 10:31:58;;;;;;;10.20;9.27;;;;;;;4.64;100.00;97868.28;5083436;28;20028;-67
2023/12/18 10:34:24;;;;;;;9.32;8.27;;;;;;;4.74;100.00;97867.03;5081660;28;20023;-66
2023/12/18 10:36:55;;;;;;;9.10;7.60;;;;;;;4.88;100.00;97854.38;5088279;28;20481;-66
2023/12/18 10:39:21;;;;;;;9.63;8.00;;;;;;;5.05;100.00;97839.03;5082884;28;20513;-66
2023/12/18 10:41:53;;;;;;;19.77;10.60;;;;;;;5.24;100.00;97845.28;5075029;28;20028;-66
2023/12/18 10:44:21;;;;;;;9.60;8.50;;;;;;;5.24;100.00;97828.78;5075058;28;20040;-66
2023/12/18 10:46:49;;;;;;;7.25;6.55;;;;;;;5.42;100.00;97829.84;5081768;28;20512;-66
2023/12/18 10:49:16;;;;;;;6.47;5.88;;;;;;;5.61;100.00;97811.72;5090347;28;20027;-66
2023/12/18 10:51:44;;;;;;;5.75;4.93;;;;;;;5.77;100.00;97801.53;5093358;28;20020;-67
2023/12/18 10:54:11;;;;;;;4.97;4.55;;;;;;;5.91;100.00;97787.91;5092367;28;20118;-66
2023/12/18 10:56:39;;;;;;;5.43;4.93;;;;;;;6.11;100.00;97781.91;5092342;28;20053;-66
2023/12/18 10:59:06;;;;;;;5.32;4.82;;;;;;;6.24;100.00;97771.78;5090178;28;20038;-66
2023/12/18 11:01:34;;;;;;;4.63;4.22;;;;;;;6.47;100.00;97761.28;5089833;28;20028;-66
2023/12/18 11:04:01;;;;;;;6.28;4.22;;;;;;;6.62;100.00;97754.53;5092722;28;20028;-66
2023/12/18 11:06:28;;;;;;;12.13;10.90;;;;;;;6.76;100.00;97744.31;5095017;28;20032;-66
2023/12/18 11:08:54;;;;;;;7.25;5.07;;;;;;;6.77;100.00;97748.63;5096207;28;20043;-66
2023/12/18 11:11:21;;;;;;;5.05;3.80;;;;;;;6.67;100.00;97742.94;5093157;28;20039;-66